Time;durP1;ratioP1;P1;durP2;ratioP2;P2;SDS_P1;SDS_P2;PMS_P1;PMS_P2;Temp;Humidity;BMP_temperature;BMP_pressure;BME280_temperature;BME280_humidity;BME280_pressure;Samples;Min_cycle;Max_cycle;Signal;HPM_P1;HPM_P2
2022/04/30 00:00:59;;;;;;;22.00;12.90;;;;;;;-141.50;100.00;63355.56;5099816;28;20079;-83
2022/04/30 00:03:27;;;;;;;27.88;13.43;;;;;;;-141.50;100.00;63355.56;5086903;28;20048;-84
2022/04/30 00:06:18;;;;;;;23.48;13.63;;;;;;;-141.50;100.00;63355.56;5079898;28;20139;-82
2022/04/30 00:09:06;;;;;;;22.88;13.85;;;;;;;-141.50;100.00;63355.56;5078804;28;20048;-82
2022/04/30 00:11:31;;;;;;;28.52;13.45;;;;;;;-141.50;100.00;63355.56;5078827;28;20048;-84
2022/04/30 00:14:00;;;;;;;24.25;13.52;;;;;;;-141.50;100.00;63355.56;5089652;28;20460;-83
2022/04/30 00:16:35;;;;;;;27.02;14.05;;;;;;;-141.50;100.00;63355.56;5094013;28;20097;-82
2022/04/30 00:19:06;;;;;;;30.52;14.77;;;;;;;-141.50;100.00;63355.56;5093892;28;20066;-83
2022/04/30 00:21:33;;;;;;;26.83;14.20;;;;;;;-141.50;100.00;63355.56;5094875;28;20408;-82
2022/04/30 00:24:02;;;;;;;28.50;13.50;;;;;;;-141.50;100.00;63355.56;5085879;28;20531;-82
2022/04/30 00:26:28;;;;;;;28.50;14.20;;;;;;;-141.50;100.00;63355.56;5078475;28;20072;-84
2022/04/30 00:28:57;;;;;;;26.38;13.88;;;;;;;-141.50;100.00;63355.56;5078127;28;20052;-84
2022/04/30 00:31:25;;;;;;;23.33;14.23;;;;;;;-141.50;100.00;63355.56;5077801;28;20053;-84
2022/04/30 00:33:55;;;;;;;22.73;13.32;;;;;;;-141.50;100.00;63355.56;5078645;28;20063;-85
2022/04/30 00:36:22;;;;;;;28.83;13.48;;;;;;;-141.50;100.00;63355.56;5076234;28;20094;-83
2022/04/30 00:38:58;;;;;;;23.67;13.98;;;;;;;-141.50;100.00;63355.56;5075703;28;20056;-82
2022/04/30 00:41:25;;;;;;;27.27;14.10;;;;;;;-141.50;100.00;63355.56;5075305;28;20122;-84
2022/04/30 00:43:54;;;;;;;23.85;12.95;;;;;;;-141.50;100.00;63355.56;5075992;28;20091;-83
2022/04/30 00:46:30;;;;;;;27.40;13.90;;;;;;;-141.50;100.00;63355.56;5077120;28;20109;-83
2022/04/30 00:48:58;;;;;;;25.10;13.65;;;;;;;-141.50;100.00;63355.56;5076616;28;20052;-83
2022/04/30 00:51:26;;;;;;;25.55;14.10;;;;;;;-141.50;100.00;63355.56;5075950;28;20110;-82
2022/04/30 00:53:55;;;;;;;27.08;13.80;;;;;;;-141.50;100.00;63355.56;5072551;28;20310;-83
2022/04/30 00:56:44;;;;;;;25.80;14.35;;;;;;;-141.50;100.00;63355.56;5073211;28;20086;-81
2022/04/30 00:59:28;;;;;;;28.30;14.45;;;;;;;-141.50;100.00;63355.56;5092170;28;20052;-83
2022/04/30 01:01:59;;;;;;;28.33;15.32;;;;;;;-141.50;100.00;63355.56;5096381;28;20051;-81
2022/04/30 01:04:26;;;;;;;26.15;14.02;;;;;;;-141.50;100.00;63355.56;5096867;28;20056;-80
2022/04/30 01:06:56;;;;;;;27.10;13.10;;;;;;;-141.50;100.00;63355.56;5109075;28;20079;-81
2022/04/30 01:09:28;;;;;;;27.45;13.95;;;;;;;-141.50;100.00;63355.56;5098754;28;20059;-83
2022/04/30 01:12:25;;;;;;;22.67;13.38;;;;;;;-141.50;100.00;63355.56;5096595;28;20051;-83
2022/04/30 01:14:52;;;;;;;28.02;15.07;;;;;;;-141.50;100.00;63355.56;5083091;28;20052;-82
2022/04/30 01:17:26;;;;;;;26.90;14.52;;;;;;;-141.50;100.00;63355.56;5092079;28;20052;-82
2022/04/30 01:20:00;;;;;;;28.10;14.93;;;;;;;-141.50;100.00;63355.56;5094063;28;20109;-81
2022/04/30 01:22:34;;;;;;;29.15;14.63;;;;;;;-141.50;100.00;63355.56;5084846;28;20051;-82
2022/04/30 01:25:03;;;;;;;29.45;15.50;;;;;;;-141.50;100.00;63355.56;5088279;28;20086;-82
2022/04/30 01:27:32;;;;;;;27.00;14.55;;;;;;;-141.50;100.00;63355.56;5108064;28;20074;-80
2022/04/30 01:30:05;;;;;;;23.88;14.57;;;;;;;-141.50;100.00;63355.56;5109947;28;20086;-81
2022/04/30 01:38:15;;;;;;;26.40;14.38;;;;;;;-141.50;100.00;63355.56;5095690;28;20109;-82
2022/04/30 01:40:48;;;;;;;30.25;15.45;;;;;;;-141.50;100.00;63355.56;5094537;28;20077;-82
2022/04/30 01:43:22;;;;;;;23.42;13.15;;;;;;;-141.50;100.00;63355.56;5094493;28;20082;-83
2022/04/30 01:45:52;;;;;;;27.83;14.57;;;;;;;-141.50;100.00;63355.56;5093282;28;20056;-81
2022/04/30 01:48:20;;;;;;;23.98;14.25;;;;;;;-141.50;100.00;63355.56;5095406;28;20436;-83
2022/04/30 01:50:47;;;;;;;24.35;14.23;;;;;;;-141.50;100.00;63355.56;5093823;28;20105;-83
2022/04/30 01:53:21;;;;;;;24.48;13.68;;;;;;;-141.50;100.00;63355.56;5094038;28;20048;-84
2022/04/30 01:55:48;;;;;;;24.92;14.02;;;;;;;-141.50;100.00;63355.56;5094509;28;20048;-83
2022/04/30 01:58:20;;;;;;;28.48;14.75;;;;;;;-141.50;100.00;63355.56;5097462;28;20049;-81
2022/04/30 02:00:47;;;;;;;28.15;14.68;;;;;;;-141.50;100.00;63355.56;5086778;28;20061;-84
2022/04/30 02:03:14;;;;;;;28.35;14.55;;;;;;;-141.50;100.00;63355.56;5076004;28;20094;-83
2022/04/30 02:05:45;;;;;;;27.98;14.90;;;;;;;-141.50;100.00;63355.56;5075642;28;20366;-83
2022/04/30 02:08:13;;;;;;;26.17;15.15;;;;;;;-141.50;100.00;63355.56;5075410;28;20143;-82
2022/04/30 02:10:41;;;;;;;33.30;16.30;;;;;;;-141.50;100.00;63355.56;5074953;28;20514;-84
2022/04/30 02:13:12;;;;;;;33.97;15.18;;;;;;;-141.50;100.00;63355.56;5074338;28;20048;-82
2022/04/30 02:15:46;;;;;;;29.42;15.23;;;;;;;-141.50;100.00;63355.56;5071041;28;20060;-82
2022/04/30 02:18:18;;;;;;;21.67;13.38;;;;;;;-141.50;100.00;63355.56;5073967;28;20068;-83
2022/04/30 02:20:49;;;;;;;27.42;14.30;;;;;;;-141.50;100.00;63355.56;5072951;28;20048;-83
2022/04/30 02:23:22;;;;;;;25.52;13.88;;;;;;;-141.50;100.00;63355.56;5072748;28;20045;-82
2022/04/30 02:25:51;;;;;;;24.00;13.68;;;;;;;-141.50;100.00;63355.56;5090568;28;20051;-82
2022/04/30 02:28:18;;;;;;;27.95;14.90;;;;;;;-141.50;100.00;63355.56;5093888;28;20044;-82
2022/04/30 02:30:44;;;;;;;31.70;15.18;;;;;;;-141.50;100.00;63355.56;5097720;28;20047;-80
2022/04/30 02:33:12;;;;;;;25.35;14.40;;;;;;;-141.50;100.00;63355.56;5098084;28;20050;-83
2022/04/30 02:35:44;;;;;;;20.92;13.73;;;;;;;-141.50;100.00;63355.56;5093501;28;20075;-83
2022/04/30 02:38:15;;;;;;;24.35;14.07;;;;;;;-141.50;100.00;63355.56;5091828;28;20078;-83
2022/04/30 02:40:44;;;;;;;24.98;13.43;;;;;;;-141.50;100.00;63355.56;5093570;28;20044;-82
2022/04/30 02:43:15;;;;;;;22.45;13.43;;;;;;;-141.50;100.00;63355.56;5094103;28;20079;-85
2022/04/30 02:45:43;;;;;;;24.17;13.88;;;;;;;-141.50;100.00;63355.56;5094706;28;20466;-84
2022/04/30 02:48:12;;;;;;;26.38;14.15;;;;;;;-141.50;100.00;63355.56;5094728;28;20094;-84
2022/04/30 02:50:40;;;;;;;23.42;13.65;;;;;;;-141.50;100.00;63355.56;5106080;28;20055;-81
2022/04/30 02:53:12;;;;;;;22.88;13.15;;;;;;;-141.50;100.00;63355.56;5097549;28;20040;-84
2022/04/30 02:55:41;;;;;;;24.90;13.13;;;;;;;-141.50;100.00;63355.56;5094180;28;20052;-84
2022/04/30 03:00:59;;;;;;;29.58;13.60;;;;;;;-141.50;100.00;63355.56;5078986;28;20558;-83
2022/04/30 03:03:29;;;;;;;21.42;12.93;;;;;;;-141.50;100.00;63355.56;5079051;28;20049;-82
2022/04/30 03:05:58;;;;;;;26.70;12.93;;;;;;;-141.50;100.00;63355.56;5075762;28;20059;-84
2022/04/30 03:08:29;;;;;;;23.67;13.18;;;;;;;-141.50;100.00;63355.56;5074260;28;20048;-83
2022/04/30 03:11:01;;;;;;;29.58;13.55;;;;;;;-141.50;100.00;63355.56;5073677;28;20106;-79
2022/04/30 03:13:28;;;;;;;28.27;12.93;;;;;;;-141.50;100.00;63355.56;5069419;28;20044;-83
2022/04/30 03:21:41;;;;;;;27.58;14.13;;;;;;;-141.50;100.00;63355.56;5076177;28;20099;-82
2022/04/30 03:21:44;;;;;;;26.83;14.37;;;;;;;-141.50;100.00;63355.56;5070310;28;20505;-82
2022/04/30 03:24:15;;;;;;;21.13;13.32;;;;;;;-141.50;100.00;63355.56;5079878;28;20801;-83
2022/04/30 03:26:47;;;;;;;23.75;13.15;;;;;;;-141.50;100.00;63355.56;5071912;28;20044;-81
2022/04/30 03:29:20;;;;;;;25.67;13.90;;;;;;;-141.50;100.00;63355.56;5075458;28;20108;-81
2022/04/30 03:31:50;;;;;;;21.95;13.73;;;;;;;-141.50;100.00;63355.56;5087709;28;20048;-81
2022/04/30 03:34:32;;;;;;;26.98;14.07;;;;;;;-141.50;100.00;63355.56;5090689;28;20044;-80
2022/04/30 03:36:59;;;;;;;20.98;12.13;;;;;;;-141.50;100.00;63355.56;5080982;28;20053;-84
2022/04/30 03:39:28;;;;;;;24.83;12.95;;;;;;;-141.50;100.00;63355.56;5077311;28;20106;-84
2022/04/30 03:41:55;;;;;;;23.73;13.63;;;;;;;-141.50;100.00;63355.56;5079968;28;20413;-83
2022/04/30 03:44:26;;;;;;;23.55;12.75;;;;;;;-141.50;100.00;63355.56;5078137;28;20071;-81
2022/04/30 03:46:52;;;;;;;24.75;14.00;;;;;;;-141.50;100.00;63355.56;5078514;28;20178;-80
2022/04/30 03:49:22;;;;;;;22.17;12.63;;;;;;;-141.50;100.00;63355.56;5077933;28;20071;-85
2022/04/30 03:52:12;;;;;;;24.27;13.80;;;;;;;-141.50;100.00;63355.56;5078024;28;20313;-82
2022/04/30 03:54:39;;;;;;;26.63;12.88;;;;;;;-141.50;100.00;63355.56;5077348;28;20063;-83
2022/04/30 03:57:06;;;;;;;21.48;12.38;;;;;;;-141.50;100.00;63355.56;5079209;28;20090;-82
2022/04/30 03:59:35;;;;;;;22.48;11.77;;;;;;;-141.50;100.00;63355.56;5076916;28;20505;-83
2022/04/30 04:02:09;;;;;;;26.33;12.05;;;;;;;-141.50;100.00;63355.56;5076001;28;20080;-82
2022/04/30 04:04:41;;;;;;;20.48;11.70;;;;;;;-141.50;100.00;63355.56;5077295;28;20048;-81
2022/04/30 04:07:08;;;;;;;21.88;12.32;;;;;;;-141.50;100.00;63355.56;5075693;28;20144;-81
2022/04/30 04:09:34;;;;;;;19.90;12.20;;;;;;;-141.50;100.00;63355.56;5083532;28;20045;-80
2022/04/30 04:12:01;;;;;;;25.05;13.07;;;;;;;-141.50;100.00;63355.56;5088754;28;20082;-82
2022/04/30 04:20:05;;;;;;;23.58;11.10;;;;;;;-141.50;100.00;63355.56;5084886;28;20052;-81
2022/04/30 04:22:32;;;;;;;23.60;13.05;;;;;;;-141.50;100.00;63355.56;5080734;28;20098;-81
2022/04/30 04:27:54;;;;;;;25.73;13.63;;;;;;;-141.50;100.00;63355.56;5076254;28;20052;-82
2022/04/30 04:30:23;;;;;;;24.38;14.00;;;;;;;-141.50;100.00;63355.56;5075838;28;20052;-83
2022/04/30 04:32:50;;;;;;;27.48;13.07;;;;;;;-141.50;100.00;63355.56;5072897;28;20132;-83
2022/04/30 04:35:19;;;;;;;25.00;13.25;;;;;;;-141.50;100.00;63355.56;5074328;28;20121;-82
2022/04/30 04:37:47;;;;;;;24.90;12.63;;;;;;;-141.50;100.00;63355.56;5075348;28;20064;-81
2022/04/30 04:40:15;;;;;;;23.90;13.23;;;;;;;-141.50;100.00;63355.56;5074936;28;20486;-83
2022/04/30 04:42:43;;;;;;;25.55;13.55;;;;;;;-141.50;100.00;63355.56;5074635;28;20127;-82
2022/04/30 04:45:10;;;;;;;25.17;12.43;;;;;;;-141.50;100.00;63355.56;5074378;28;20112;-82
2022/04/30 04:47:49;;;;;;;21.52;12.25;;;;;;;-141.50;100.00;63355.56;5081556;28;20434;-82
2022/04/30 04:50:17;;;;;;;19.95;11.98;;;;;;;-141.50;100.00;63355.56;5081619;28;20491;-79
2022/04/30 04:52:47;;;;;;;22.50;11.70;;;;;;;-141.50;100.00;63355.56;5084688;28;20461;-82
2022/04/30 04:55:15;;;;;;;43.42;16.08;;;;;;;-141.50;100.00;63355.56;5086283;28;20067;-82
2022/04/30 04:57:42;;;;;;;52.30;16.08;;;;;;;-141.50;100.00;63355.56;5085024;28;20085;-83
2022/04/30 05:00:10;;;;;;;33.30;14.38;;;;;;;-141.50;100.00;63355.56;5095353;28;20121;-83
2022/04/30 05:02:41;;;;;;;27.00;13.25;;;;;;;-141.50;100.00;63355.56;5076154;28;20044;-83
2022/04/30 05:05:08;;;;;;;24.05;13.60;;;;;;;-141.50;100.00;63355.56;5078286;28;20056;-84
2022/04/30 05:07:34;;;;;;;33.20;14.65;;;;;;;-141.50;100.00;63355.56;5083691;28;20045;-83
2022/04/30 05:10:01;;;;;;;25.92;15.73;;;;;;;-141.50;100.00;63355.56;5080130;28;20220;-85
2022/04/30 05:12:27;;;;;;;27.25;15.45;;;;;;;-141.50;100.00;63355.56;5094950;28;20036;-83
2022/04/30 05:15:01;;;;;;;28.70;15.85;;;;;;;-141.50;100.00;63355.56;5076949;28;20068;-82
2022/04/30 05:17:32;;;;;;;24.90;14.65;;;;;;;-141.50;100.00;63355.56;5079120;28;20197;-83
2022/04/30 05:20:02;;;;;;;32.40;16.10;;;;;;;-141.50;100.00;63355.56;5070580;28;20044;-84
2022/04/30 05:22:28;;;;;;;34.85;15.95;;;;;;;-141.50;100.00;63355.56;5080119;28;20489;-82
2022/04/30 05:24:56;;;;;;;30.55;15.93;;;;;;;-141.50;100.00;63355.56;5088376;28;20062;-84
2022/04/30 05:27:23;;;;;;;31.17;16.50;;;;;;;-141.50;100.00;63355.56;5088283;28;20055;-82
2022/04/30 05:29:49;;;;;;;27.80;16.60;;;;;;;-141.50;100.00;63355.56;5093742;28;20052;-84
2022/04/30 05:32:16;;;;;;;29.40;16.15;;;;;;;-141.50;100.00;63355.56;5085416;28;20075;-84
2022/04/30 05:34:48;;;;;;;28.75;16.67;;;;;;;-141.50;100.00;63355.56;5072036;28;20098;-83
2022/04/30 05:37:16;;;;;;;27.63;16.13;;;;;;;-141.50;100.00;63355.56;5078352;28;20045;-80
2022/04/30 05:39:42;;;;;;;34.33;16.40;;;;;;;-141.50;100.00;63355.56;5092648;28;20519;-82
2022/04/30 05:42:09;;;;;;;36.92;18.00;;;;;;;-141.50;100.00;63355.56;5095188;28;20048;-82
2022/04/30 05:44:36;;;;;;;33.08;17.60;;;;;;;-141.50;100.00;63355.56;5095402;28;20081;-85
2022/04/30 05:47:11;;;;;;;36.05;18.08;;;;;;;-141.50;100.00;63355.56;5094377;28;20094;-82
2022/04/30 05:49:43;;;;;;;31.73;17.65;;;;;;;-141.50;100.00;63355.56;5096177;28;20059;-85
2022/04/30 05:52:11;;;;;;;35.42;17.38;;;;;;;-141.50;100.00;63355.56;5081119;28;20060;-84
2022/04/30 05:54:38;;;;;;;33.55;17.83;;;;;;;-141.50;100.00;63355.56;5076799;28;20094;-83
2022/04/30 05:57:07;;;;;;;34.38;17.80;;;;;;;-141.50;100.00;63355.56;5087797;28;20492;-84
2022/04/30 05:59:34;;;;;;;34.20;16.98;;;;;;;-141.50;100.00;63355.56;5079743;28;20083;-84
2022/04/30 06:02:00;;;;;;;31.10;17.20;;;;;;;-141.50;100.00;63355.56;5080313;28;20059;-82
2022/04/30 06:04:33;;;;;;;32.90;16.50;;;;;;;-141.50;100.00;63355.56;5085335;28;20066;-82
2022/04/30 06:07:09;;;;;;;33.97;16.88;;;;;;;-141.50;100.00;63355.56;5095489;28;20043;-84
2022/04/30 06:09:45;;;;;;;32.47;16.40;;;;;;;-141.50;100.00;63355.56;5080024;28;20094;-84
2022/04/30 06:12:13;;;;;;;38.65;16.88;;;;;;;-141.50;100.00;63355.56;5078922;28;20079;-82
2022/04/30 06:14:40;;;;;;;32.05;16.08;;;;;;;-141.50;100.00;63355.56;5088818;28;20044;-85
2022/04/30 06:17:12;;;;;;;32.67;15.63;;;;;;;-141.50;100.00;63355.56;5076967;28;20131;-82
2022/04/30 06:19:47;;;;;;;30.88;15.55;;;;;;;-141.50;100.00;63355.56;5084077;28;20067;-83
2022/04/30 06:22:19;;;;;;;33.85;15.90;;;;;;;-141.50;100.00;63355.56;5081361;28;20097;-83
2022/04/30 06:24:46;;;;;;;32.50;14.50;;;;;;;-141.50;100.00;63355.56;5083286;28;20483;-84
2022/04/30 06:27:13;;;;;;;32.53;15.18;;;;;;;-141.50;100.00;63355.56;5076702;28;20052;-82
2022/04/30 06:29:40;;;;;;;31.27;15.60;;;;;;;-141.50;100.00;63355.56;5081282;28;20066;-82
2022/04/30 06:32:07;;;;;;;29.20;14.80;;;;;;;-141.50;100.00;63355.56;5078745;28;20159;-81
2022/04/30 06:34:44;;;;;;;30.70;15.23;;;;;;;-141.50;100.00;63355.56;5083384;28;20567;-83
2022/04/30 06:37:11;;;;;;;43.80;15.98;;;;;;;-141.50;100.00;63355.56;5081231;28;20078;-83
2022/04/30 06:39:37;;;;;;;30.55;14.98;;;;;;;-141.50;100.00;63355.56;5078228;28;20113;-82
2022/04/30 06:42:11;;;;;;;33.00;15.50;;;;;;;-141.50;100.00;63355.56;5082348;28;20056;-85
2022/04/30 06:44:37;;;;;;;23.88;14.02;;;;;;;-141.50;100.00;63355.56;5082440;28;20044;-83
2022/04/30 06:47:07;;;;;;;30.15;14.07;;;;;;;-141.50;100.00;63355.56;5073319;28;20488;-81
2022/04/30 06:49:34;;;;;;;33.28;15.52;;;;;;;-141.50;100.00;63355.56;5078765;28;20371;-84
2022/04/30 06:52:01;;;;;;;29.42;14.35;;;;;;;-141.50;100.00;63355.56;5091906;28;20146;-84
2022/04/30 06:57:20;;;;;;;27.23;14.07;;;;;;;-141.50;100.00;63355.56;5079342;28;20058;-83
2022/04/30 06:59:51;;;;;;;29.25;14.05;;;;;;;-141.50;100.00;63355.56;5074702;28;20049;-82
2022/04/30 07:02:19;;;;;;;29.95;13.35;;;;;;;-141.50;100.00;63355.56;5095239;28;20121;-84
2022/04/30 07:04:50;;;;;;;28.70;13.13;;;;;;;-141.50;100.00;63355.56;5079780;28;20099;-83
2022/04/30 07:07:18;;;;;;;25.23;13.55;;;;;;;-141.50;100.00;63355.56;5079231;28;20055;-83
2022/04/30 07:09:54;;;;;;;32.13;13.93;;;;;;;-141.50;100.00;63355.56;5080641;28;20051;-83
2022/04/30 07:12:21;;;;;;;27.65;13.35;;;;;;;-141.50;100.00;63355.56;5082477;28;20117;-82
2022/04/30 07:14:49;;;;;;;24.10;12.20;;;;;;;-141.50;100.00;63355.56;5082124;28;20121;-83
2022/04/30 07:17:26;;;;;;;25.38;12.88;;;;;;;-141.50;100.00;63355.56;5085610;28;20040;-84
2022/04/30 07:19:52;;;;;;;27.55;13.30;;;;;;;-141.50;100.00;63355.56;5084394;28;20068;-83
2022/04/30 07:22:24;;;;;;;28.55;13.20;;;;;;;-141.50;100.00;63355.56;5088254;28;20048;-84
2022/04/30 07:24:51;;;;;;;24.45;12.95;;;;;;;-141.50;100.00;63355.56;5098989;28;20075;-82
2022/04/30 07:27:21;;;;;;;24.15;12.85;;;;;;;-141.50;100.00;63355.56;5088363;28;20048;-80
2022/04/30 07:29:48;;;;;;;24.38;12.15;;;;;;;-141.50;100.00;63355.56;5092906;28;20101;-82
2022/04/30 07:32:18;;;;;;;21.58;12.48;;;;;;;-141.50;100.00;63355.56;5092582;28;20044;-81
2022/04/30 07:34:48;;;;;;;25.00;12.65;;;;;;;-141.50;100.00;63355.56;5094884;28;20044;-80
2022/04/30 07:37:15;;;;;;;21.40;11.77;;;;;;;-141.50;100.00;63355.56;5096443;28;20056;-81
2022/04/30 07:39:49;;;;;;;27.17;11.80;;;;;;;-141.50;100.00;63355.56;5091759;28;20048;-79
2022/04/30 07:42:15;;;;;;;24.90;13.07;;;;;;;-141.50;100.00;63355.56;5092963;28;20051;-79
2022/04/30 07:44:42;;;;;;;22.05;12.07;;;;;;;-141.50;100.00;63355.56;5094251;28;20076;-79
2022/04/30 07:47:09;;;;;;;35.65;12.65;;;;;;;-141.50;100.00;63355.56;5085190;28;20111;-84
2022/04/30 07:49:36;;;;;;;25.73;11.27;;;;;;;-141.50;100.00;63355.56;5094368;28;20071;-81
2022/04/30 07:52:12;;;;;;;22.70;12.15;;;;;;;-141.50;100.00;63355.56;5094116;28;20067;-80
2022/04/30 07:54:41;;;;;;;30.20;12.43;;;;;;;-141.50;100.00;63355.56;5099857;28;20139;-79
2022/04/30 07:57:08;;;;;;;24.73;11.73;;;;;;;-141.50;100.00;63355.56;5094357;28;20078;-81
2022/04/30 07:59:35;;;;;;;25.77;13.02;;;;;;;-141.50;100.00;63355.56;5092714;28;20067;-78
2022/04/30 08:02:02;;;;;;;18.98;12.00;;;;;;;-141.50;100.00;63355.56;5092537;28;20044;-81
2022/04/30 08:04:29;;;;;;;20.67;11.52;;;;;;;-141.50;100.00;63355.56;5091741;28;20083;-80
2022/04/30 08:06:56;;;;;;;23.15;11.90;;;;;;;-141.50;100.00;63355.56;5071196;28;20088;-81
2022/04/30 08:09:23;;;;;;;30.25;11.63;;;;;;;-141.50;100.00;63355.56;5072151;28;20056;-80
2022/04/30 08:11:49;;;;;;;20.02;11.68;;;;;;;-141.50;100.00;63355.56;5074956;28;20479;-80
2022/04/30 08:14:16;;;;;;;22.98;12.00;;;;;;;-141.50;100.00;63355.56;5082916;28;20088;-84
2022/04/30 08:16:44;;;;;;;26.85;11.65;;;;;;;-141.50;100.00;63355.56;5093040;28;20079;-83
2022/04/30 08:19:11;;;;;;;24.65;12.27;;;;;;;-141.50;100.00;63355.56;5095447;28;20051;-83
2022/04/30 08:21:38;;;;;;;24.35;11.93;;;;;;;-141.50;100.00;63355.56;5095334;28;20502;-83
2022/04/30 08:24:32;;;;;;;26.00;12.05;;;;;;;-141.50;100.00;63355.56;5094406;28;20078;-81
2022/04/30 08:27:00;;;;;;;;;;;;;;;-141.50;100.00;63355.56;5093716;28;20078;-82
2022/04/30 08:29:28;;;;;;;21.80;12.00;;;;;;;-141.50;100.00;63355.56;5092662;28;19959;-82
2022/04/30 08:31:55;;;;;;;18.52;10.82;;;;;;;-141.50;100.00;63355.56;5092841;28;20583;-82
2022/04/30 08:34:23;;;;;;;25.52;11.68;;;;;;;-141.50;100.00;63355.56;5084854;28;20055;-82
2022/04/30 08:36:50;;;;;;;25.38;12.75;;;;;;;-141.50;100.00;63355.56;5080694;28;20063;-83
2022/04/30 08:39:16;;;;;;;29.75;12.55;;;;;;;-141.50;100.00;63355.56;5074154;28;20305;-85
2022/04/30 08:41:49;;;;;;;25.02;11.15;;;;;;;-141.50;100.00;63355.56;5076590;28;20074;-85
2022/04/30 08:44:18;;;;;;;23.10;11.43;;;;;;;-141.50;100.00;63355.56;5083491;28;20070;-84
2022/04/30 08:46:45;;;;;;;25.10;11.93;;;;;;;-141.50;100.00;63355.56;5091358;28;20047;-80
2022/04/30 08:49:15;;;;;;;20.40;10.48;;;;;;;-141.50;100.00;63355.56;5091398;28;20528;-83
2022/04/30 08:51:47;;;;;;;27.75;11.00;;;;;;;-141.50;100.00;63355.56;5090017;28;20399;-82
2022/04/30 08:54:13;;;;;;;21.40;11.00;;;;;;;-141.50;100.00;63355.56;5092068;28;20120;-84
2022/04/30 08:56:56;;;;;;;23.08;10.80;;;;;;;-141.50;100.00;63355.56;5092428;28;20202;-83
2022/04/30 08:59:27;;;;;;;16.80;10.63;;;;;;;-141.50;100.00;63355.56;5090812;28;20086;-83
2022/04/30 09:01:58;;;;;;;21.85;10.30;;;;;;;-141.50;100.00;63355.56;5092397;28;20080;-81
2022/04/30 09:04:26;;;;;;;21.98;11.52;;;;;;;-141.50;100.00;63355.56;5079278;28;20044;-80
2022/04/30 09:06:55;;;;;;;22.50;11.02;;;;;;;-141.50;100.00;63355.56;5087298;28;20132;-82
2022/04/30 09:09:28;;;;;;;25.08;11.55;;;;;;;-141.50;100.00;63355.56;5087770;28;20048;-81
2022/04/30 09:12:08;;;;;;;19.55;10.60;;;;;;;-141.50;100.00;63355.56;5068489;28;20059;-83
2022/04/30 09:14:40;;;;;;;16.33;10.57;;;;;;;-141.50;100.00;63355.56;5067728;28;20114;-82
2022/04/30 09:17:10;;;;;;;23.73;10.73;;;;;;;-141.50;100.00;63355.56;5077502;28;20058;-82
2022/04/30 09:20:03;;;;;;;20.77;10.85;;;;;;;-141.50;100.00;63355.56;5070129;28;20482;-83
2022/04/30 09:22:30;;;;;;;24.58;10.77;;;;;;;-141.50;100.00;63355.56;5067046;28;20071;-79
2022/04/30 09:25:00;;;;;;;19.58;10.15;;;;;;;-141.50;100.00;63355.56;5079179;28;20101;-80
2022/04/30 09:27:50;;;;;;;18.10;10.07;;;;;;;-141.50;100.00;63355.56;5070464;28;20527;-80
2022/04/30 09:30:19;;;;;;;18.13;10.05;;;;;;;-141.50;100.00;63355.56;5066125;28;20455;-78
2022/04/30 09:33:00;;;;;;;21.10;10.27;;;;;;;-141.50;100.00;63355.56;5068194;28;20179;-78
2022/04/30 09:38:16;;;;;;;19.20;10.63;;;;;;;-141.50;100.00;63355.56;5069198;28;20099;-78
2022/04/30 09:41:01;;;;;;;18.33;9.85;;;;;;;-141.50;100.00;63355.56;5066627;28;20048;-78
2022/04/30 09:43:37;;;;;;;24.17;10.15;;;;;;;-141.50;100.00;63355.56;5072567;28;20578;-81
2022/04/30 09:46:08;;;;;;;20.55;10.73;;;;;;;-141.50;100.00;63355.56;5077404;28;20087;-78
2022/04/30 09:54:07;;;;;;;18.30;10.00;;;;;;;-141.50;100.00;63355.56;5089270;28;20048;-78
2022/04/30 09:56:47;;;;;;;19.88;10.38;;;;;;;-141.50;100.00;63355.56;5072584;28;20489;-80
2022/04/30 09:59:30;;;;;;;27.55;10.55;;;;;;;-141.50;100.00;63355.56;5074132;28;20059;-80
2022/04/30 10:01:58;;;;;;;17.98;10.52;;;;;;;-141.50;100.00;63355.56;5076345;28;20465;-80
2022/04/30 10:04:34;;;;;;;21.38;10.02;;;;;;;-141.50;100.00;63355.56;5075020;28;20048;-79
2022/04/30 10:07:07;;;;;;;;;;;;;;;-141.50;100.00;63355.56;5092521;28;20054;-78
2022/04/30 10:09:36;;;;;;;19.13;10.48;;;;;;;-141.50;100.00;63355.56;5096126;28;19963;-81
2022/04/30 10:12:24;;;;;;;23.63;10.73;;;;;;;-141.50;100.00;63355.56;5099272;28;20281;-79
2022/04/30 10:14:50;;;;;;;17.30;10.13;;;;;;;-141.50;100.00;63355.56;5094915;28;20044;-79
2022/04/30 10:17:23;;;;;;;16.92;10.38;;;;;;;-141.50;100.00;63355.56;5081328;28;20104;-79
2022/04/30 10:20:00;;;;;;;19.10;10.35;;;;;;;-141.50;100.00;63355.56;5078953;28;20052;-78
2022/04/30 10:22:28;;;;;;;18.40;9.98;;;;;;;-141.50;100.00;63355.56;5068560;28;20106;-80
2022/04/30 10:24:58;;;;;;;17.15;9.68;;;;;;;-141.50;100.00;63355.56;5079329;28;20080;-81
2022/04/30 10:27:37;;;;;;;18.67;9.80;;;;;;;-141.50;100.00;63355.56;5067567;28;20052;-76
2022/04/30 10:30:18;;;;;;;15.90;9.55;;;;;;;-141.50;100.00;63355.56;5068536;28;20530;-80
2022/04/30 10:32:55;;;;;;;18.05;8.63;;;;;;;-141.50;100.00;63355.56;5066132;28;20504;-80
2022/04/30 10:35:36;;;;;;;14.30;8.88;;;;;;;-141.50;100.00;63355.56;5070640;28;20064;-78
2022/04/30 10:38:18;;;;;;;15.07;9.10;;;;;;;-141.50;100.00;63355.56;5078176;28;20508;-77
2022/04/30 10:40:51;;;;;;;16.35;9.18;;;;;;;-141.50;100.00;63355.56;5076759;28;20116;-77
2022/04/30 10:43:32;;;;;;;19.38;9.10;;;;;;;-141.50;100.00;63355.56;5076868;28;20067;-79
2022/04/30 10:45:59;;;;;;;16.75;8.30;;;;;;;-141.50;100.00;63355.56;5073792;28;20052;-80
2022/04/30 10:48:29;;;;;;;12.73;9.13;;;;;;;-141.50;100.00;63355.56;5076296;28;20124;-79
2022/04/30 10:51:29;;;;;;;12.60;8.80;;;;;;;-141.50;100.00;63355.56;5065606;28;20052;-74
2022/04/30 10:54:18;;;;;;;18.98;9.85;;;;;;;-141.50;100.00;63355.56;5071424;28;20056;-76
2022/04/30 10:57:00;;;;;;;17.13;8.75;;;;;;;-141.50;100.00;63355.56;5069765;28;20052;-79
2022/04/30 10:59:27;;;;;;;15.90;9.70;;;;;;;-141.50;100.00;63355.56;5082686;28;20078;-77
2022/04/30 11:01:56;;;;;;;15.75;9.57;;;;;;;-141.50;100.00;63355.56;5071725;28;20051;-78
2022/04/30 11:04:25;;;;;;;17.08;9.27;;;;;;;-141.50;100.00;63355.56;5066839;28;20048;-78
2022/04/30 11:06:53;;;;;;;18.35;9.10;;;;;;;-141.50;100.00;63355.56;5069782;28;20400;-77
2022/04/30 11:09:21;;;;;;;14.13;9.95;;;;;;;-141.50;100.00;63355.56;5072503;28;20582;-79
2022/04/30 11:11:50;;;;;;;15.52;9.70;;;;;;;-141.50;100.00;63355.56;5066231;28;20082;-79
2022/04/30 11:14:27;;;;;;;;;;;;;;;;;;;;;
2022/04/30 11:16:57;;;;;;;13.82;9.38;;;;;;;-141.50;100.00;63355.56;5086205;28;20427;-79
2022/04/30 11:19:26;;;;;;;16.08;9.07;;;;;;;-141.50;100.00;63355.56;5075331;28;20099;-81
2022/04/30 11:21:54;;;;;;;13.93;9.68;;;;;;;-141.50;100.00;63355.56;5075853;28;20080;-78
2022/04/30 11:24:27;;;;;;;13.77;9.70;;;;;;;-141.50;100.00;63355.56;5077152;28;20433;-79
2022/04/30 11:26:59;;;;;;;17.20;9.05;;;;;;;-141.50;100.00;63355.56;5076584;28;20105;-78
2022/04/30 11:29:26;;;;;;;16.92;9.95;;;;;;;-141.50;100.00;63355.56;5081087;28;20051;-78
2022/04/30 11:31:54;;;;;;;13.45;9.13;;;;;;;-141.50;100.00;63355.56;5083292;28;20124;-78
2022/04/30 11:34:32;;;;;;;15.88;9.00;;;;;;;-141.50;100.00;63355.56;5077095;28;20044;-78
2022/04/30 11:37:09;;;;;;;17.20;8.98;;;;;;;-141.50;100.00;63355.56;5079368;28;20057;-78
2022/04/30 11:39:41;;;;;;;14.63;9.48;;;;;;;-141.50;100.00;63355.56;5079417;28;20131;-78
2022/04/30 11:42:11;;;;;;;13.13;9.40;;;;;;;-141.50;100.00;63355.56;5073267;28;20133;-80
2022/04/30 11:44:42;;;;;;;16.08;9.40;;;;;;;-141.50;100.00;63355.56;5080106;28;20044;-77